sensor_id;sensor_type;location;lat;lon;timestamp;P1;durP1;ratioP1;P2;durP2;ratioP2
57856;SDS011;43683;48.650;9.290;2022-08-11T00:00:19;2.58;;;1.85;;
57856;SDS011;43683;48.650;9.290;2022-08-11T00:02:51;3.65;;;2.00;;
57856;SDS011;43683;48.650;9.290;2022-08-11T00:05:19;2.30;;;1.77;;
57856;SDS011;43683;48.650;9.290;2022-08-11T00:10:19;2.13;;;1.80;;
57856;SDS011;43683;48.650;9.290;2022-08-11T00:12:50;3.17;;;1.92;;
57856;SDS011;43683;48.650;9.290;2022-08-11T00:15:16;2.03;;;1.50;;
57856;SDS011;43683;48.650;9.290;2022-08-11T00:17:42;2.65;;;2.20;;
57856;SDS011;43683;48.650;9.290;2022-08-11T00:20:10;4.00;;;1.92;;
57856;SDS011;43683;48.650;9.290;2022-08-11T00:22:38;2.80;;;1.77;;
57856;SDS011;43683;48.650;9.290;2022-08-11T00:25:14;3.00;;;2.20;;
57856;SDS011;43683;48.650;9.290;2022-08-11T00:27:42;2.45;;;1.85;;
57856;SDS011;43683;48.650;9.290;2022-08-11T00:30:09;3.03;;;1.77;;
57856;SDS011;43683;48.650;9.290;2022-08-11T00:32:42;5.05;;;1.85;;
57856;SDS011;43683;48.650;9.290;2022-08-11T00:35:16;2.97;;;2.08;;
57856;SDS011;43683;48.650;9.290;2022-08-11T00:37:47;2.60;;;1.88;;
57856;SDS011;43683;48.650;9.290;2022-08-11T00:44:03;2.65;;;1.95;;
57856;SDS011;43683;48.650;9.290;2022-08-11T00:48:58;2.28;;;1.80;;
57856;SDS011;43683;48.650;9.290;2022-08-11T00:51:52;2.00;;;1.80;;
57856;SDS011;43683;48.650;9.290;2022-08-11T00:54:39;2.42;;;1.90;;
57856;SDS011;43683;48.650;9.290;2022-08-11T00:57:28;3.25;;;1.75;;
57856;SDS011;43683;48.650;9.290;2022-08-11T01:00:16;3.17;;;1.85;;
57856;SDS011;43683;48.650;9.290;2022-08-11T01:17:30;1.88;;;1.70;;
57856;SDS011;43683;48.650;9.290;2022-08-11T01:20:22;3.20;;;1.77;;
57856;SDS011;43683;48.650;9.290;2022-08-11T01:28:58;3.47;;;2.10;;
57856;SDS011;43683;48.650;9.290;2022-08-11T01:31:36;2.87;;;2.27;;
57856;SDS011;43683;48.650;9.290;2022-08-11T01:40:05;2.92;;;2.05;;
57856;SDS011;43683;48.650;9.290;2022-08-11T01:59:09;4.53;;;2.08;;
57856;SDS011;43683;48.650;9.290;2022-08-11T02:12:57;5.50;;;2.13;;
57856;SDS011;43683;48.650;9.290;2022-08-11T02:15:33;3.17;;;2.17;;
57856;SDS011;43683;48.650;9.290;2022-08-11T02:18:12;4.30;;;2.50;;
57856;SDS011;43683;48.650;9.290;2022-08-11T02:20:45;2.50;;;2.10;;
57856;SDS011;43683;48.650;9.290;2022-08-11T02:23:51;2.38;;;1.95;;
57856;SDS011;43683;48.650;9.290;2022-08-11T02:28:54;3.50;;;2.17;;
57856;SDS011;43683;48.650;9.290;2022-08-11T02:37:23;4.00;;;2.25;;
57856;SDS011;43683;48.650;9.290;2022-08-11T02:42:29;3.83;;;2.38;;
57856;SDS011;43683;48.650;9.290;2022-08-11T02:45:30;2.97;;;2.20;;
57856;SDS011;43683;48.650;9.290;2022-08-11T02:48:22;3.17;;;1.88;;
57856;SDS011;43683;48.650;9.290;2022-08-11T02:57:26;3.05;;;2.17;;
57856;SDS011;43683;48.650;9.290;2022-08-11T02:59:55;2.53;;;2.13;;
57856;SDS011;43683;48.650;9.290;2022-08-11T03:07:40;2.67;;;2.15;;
57856;SDS011;43683;48.650;9.290;2022-08-11T03:10:22;4.13;;;2.38;;
57856;SDS011;43683;48.650;9.290;2022-08-11T03:12:55;2.97;;;2.13;;
57856;SDS011;43683;48.650;9.290;2022-08-11T03:19:59;3.88;;;2.38;;
57856;SDS011;43683;48.650;9.290;2022-08-11T03:22:19;4.55;;;2.50;;
57856;SDS011;43683;48.650;9.290;2022-08-11T03:24:56;3.53;;;2.63;;
57856;SDS011;43683;48.650;9.290;2022-08-11T03:27:32;5.65;;;2.33;;
57856;SDS011;43683;48.650;9.290;2022-08-11T03:30:04;5.35;;;2.47;;
57856;SDS011;43683;48.650;9.290;2022-08-11T03:32:50;3.70;;;2.53;;
57856;SDS011;43683;48.650;9.290;2022-08-11T03:38:55;4.68;;;2.25;;
57856;SDS011;43683;48.650;9.290;2022-08-11T03:41:33;2.75;;;2.20;;
57856;SDS011;43683;48.650;9.290;2022-08-11T03:47:00;4.00;;;2.40;;
57856;SDS011;43683;48.650;9.290;2022-08-11T04:04:44;3.35;;;2.58;;
57856;SDS011;43683;48.650;9.290;2022-08-11T04:08:07;4.00;;;2.80;;
57856;SDS011;43683;48.650;9.290;2022-08-11T04:30:14;4.70;;;2.63;;
57856;SDS011;43683;48.650;9.290;2022-08-11T04:35:59;3.50;;;2.58;;
57856;SDS011;43683;48.650;9.290;2022-08-11T04:41:23;4.70;;;2.40;;
57856;SDS011;43683;48.650;9.290;2022-08-11T04:53:59;3.05;;;2.40;;
57856;SDS011;43683;48.650;9.290;2022-08-11T04:56:50;3.05;;;2.35;;
57856;SDS011;43683;48.650;9.290;2022-08-11T05:00:04;3.47;;;2.63;;
57856;SDS011;43683;48.650;9.290;2022-08-11T05:08:54;2.95;;;2.30;;
57856;SDS011;43683;48.650;9.290;2022-08-11T05:11:42;2.30;;;2.10;;
57856;SDS011;43683;48.650;9.290;2022-08-11T05:14:32;4.90;;;2.75;;
57856;SDS011;43683;48.650;9.290;2022-08-11T05:17:26;3.60;;;2.60;;
57856;SDS011;43683;48.650;9.290;2022-08-11T05:20:25;2.60;;;2.30;;
57856;SDS011;43683;48.650;9.290;2022-08-11T05:23:10;3.75;;;2.38;;
57856;SDS011;43683;48.650;9.290;2022-08-11T05:25:55;3.60;;;2.80;;
57856;SDS011;43683;48.650;9.290;2022-08-11T05:28:45;4.55;;;2.67;;
57856;SDS011;43683;48.650;9.290;2022-08-11T05:31:42;3.58;;;2.50;;
57856;SDS011;43683;48.650;9.290;2022-08-11T05:37:58;3.20;;;2.38;;
57856;SDS011;43683;48.650;9.290;2022-08-11T05:39:54;4.82;;;2.50;;
57856;SDS011;43683;48.650;9.290;2022-08-11T05:42:47;4.40;;;2.42;;
57856;SDS011;43683;48.650;9.290;2022-08-11T05:45:33;2.92;;;2.40;;
57856;SDS011;43683;48.650;9.290;2022-08-11T05:48:18;5.22;;;2.50;;
57856;SDS011;43683;48.650;9.290;2022-08-11T05:51:03;3.50;;;2.72;;
57856;SDS011;43683;48.650;9.290;2022-08-11T05:53:50;3.10;;;2.60;;
57856;SDS011;43683;48.650;9.290;2022-08-11T05:56:43;4.80;;;2.63;;
57856;SDS011;43683;48.650;9.290;2022-08-11T05:59:16;2.95;;;2.50;;
57856;SDS011;43683;48.650;9.290;2022-08-11T06:01:43;3.17;;;2.63;;
57856;SDS011;43683;48.650;9.290;2022-08-11T06:04:14;3.83;;;2.60;;
57856;SDS011;43683;48.650;9.290;2022-08-11T06:07:10;4.68;;;2.95;;
57856;SDS011;43683;48.650;9.290;2022-08-11T06:09:46;3.22;;;2.45;;
57856;SDS011;43683;48.650;9.290;2022-08-11T06:14:54;3.88;;;2.63;;
57856;SDS011;43683;48.650;9.290;2022-08-11T06:17:25;4.60;;;2.70;;
57856;SDS011;43683;48.650;9.290;2022-08-11T06:19:59;4.03;;;2.72;;
57856;SDS011;43683;48.650;9.290;2022-08-11T06:22:28;5.10;;;2.70;;
57856;SDS011;43683;48.650;9.290;2022-08-11T06:24:56;5.57;;;3.33;;
57856;SDS011;43683;48.650;9.290;2022-08-11T06:27:25;3.88;;;2.80;;
57856;SDS011;43683;48.650;9.290;2022-08-11T06:29:52;5.22;;;2.65;;
57856;SDS011;43683;48.650;9.290;2022-08-11T06:32:20;4.47;;;2.90;;
57856;SDS011;43683;48.650;9.290;2022-08-11T06:37:26;5.50;;;2.88;;
57856;SDS011;43683;48.650;9.290;2022-08-11T06:40:07;3.78;;;2.70;;
57856;SDS011;43683;48.650;9.290;2022-08-11T06:43:09;5.93;;;3.22;;
57856;SDS011;43683;48.650;9.290;2022-08-11T06:48:27;5.13;;;2.80;;
57856;SDS011;43683;48.650;9.290;2022-08-11T06:50:57;2.88;;;2.58;;
57856;SDS011;43683;48.650;9.290;2022-08-11T06:56:07;3.10;;;2.70;;
57856;SDS011;43683;48.650;9.290;2022-08-11T06:58:53;4.68;;;2.70;;
57856;SDS011;43683;48.650;9.290;2022-08-11T07:04:39;4.70;;;2.70;;
57856;SDS011;43683;48.650;9.290;2022-08-11T07:13:08;3.28;;;2.63;;
57856;SDS011;43683;48.650;9.290;2022-08-11T07:15:54;7.13;;;3.08;;
57856;SDS011;43683;48.650;9.290;2022-08-11T07:18:24;4.60;;;2.30;;
57856;SDS011;43683;48.650;9.290;2022-08-11T07:21:15;3.28;;;2.65;;
57856;SDS011;43683;48.650;9.290;2022-08-11T07:24:26;4.78;;;2.67;;
57856;SDS011;43683;48.650;9.290;2022-08-11T07:27:13;4.68;;;2.60;;
57856;SDS011;43683;48.650;9.290;2022-08-11T07:30:03;3.95;;;2.45;;
57856;SDS011;43683;48.650;9.290;2022-08-11T07:32:32;2.58;;;2.20;;
57856;SDS011;43683;48.650;9.290;2022-08-11T07:35:02;6.07;;;3.30;;
57856;SDS011;43683;48.650;9.290;2022-08-11T07:37:33;6.47;;;2.50;;
57856;SDS011;43683;48.650;9.290;2022-08-11T07:40:00;4.00;;;2.53;;
57856;SDS011;43683;48.650;9.290;2022-08-11T07:42:29;5.20;;;2.70;;
57856;SDS011;43683;48.650;9.290;2022-08-11T07:44:59;5.50;;;2.60;;
57856;SDS011;43683;48.650;9.290;2022-08-11T07:47:47;4.03;;;2.70;;
57856;SDS011;43683;48.650;9.290;2022-08-11T07:50:32;4.47;;;2.70;;
57856;SDS011;43683;48.650;9.290;2022-08-11T07:53:17;3.10;;;2.22;;
57856;SDS011;43683;48.650;9.290;2022-08-11T07:55:46;4.05;;;2.33;;
57856;SDS011;43683;48.650;9.290;2022-08-11T07:58:13;3.45;;;2.55;;
57856;SDS011;43683;48.650;9.290;2022-08-11T08:00:58;3.78;;;1.90;;
57856;SDS011;43683;48.650;9.290;2022-08-11T08:03:43;4.90;;;2.53;;
57856;SDS011;43683;48.650;9.290;2022-08-11T08:06:28;3.65;;;2.53;;
57856;SDS011;43683;48.650;9.290;2022-08-11T08:09:15;4.15;;;2.42;;
57856;SDS011;43683;48.650;9.290;2022-08-11T08:12:02;3.55;;;2.20;;
57856;SDS011;43683;48.650;9.290;2022-08-11T08:14:48;2.20;;;2.00;;
57856;SDS011;43683;48.650;9.290;2022-08-11T08:17:33;4.80;;;2.40;;
57856;SDS011;43683;48.650;9.290;2022-08-11T08:20:25;3.55;;;2.20;;
57856;SDS011;43683;48.650;9.290;2022-08-11T08:22:57;2.60;;;2.20;;
57856;SDS011;43683;48.650;9.290;2022-08-11T08:25:27;3.90;;;2.70;;
57856;SDS011;43683;48.650;9.290;2022-08-11T08:27:55;3.22;;;2.17;;
57856;SDS011;43683;48.650;9.290;2022-08-11T08:33:08;4.47;;;2.25;;
57856;SDS011;43683;48.650;9.290;2022-08-11T08:35:35;4.22;;;2.10;;
57856;SDS011;43683;48.650;9.290;2022-08-11T08:38:01;2.35;;;1.98;;
57856;SDS011;43683;48.650;9.290;2022-08-11T08:40:28;3.65;;;2.20;;
57856;SDS011;43683;48.650;9.290;2022-08-11T08:42:56;4.03;;;2.10;;
57856;SDS011;43683;48.650;9.290;2022-08-11T08:45:25;2.22;;;1.65;;
57856;SDS011;43683;48.650;9.290;2022-08-11T08:47:59;2.92;;;1.92;;
57856;SDS011;43683;48.650;9.290;2022-08-11T08:50:37;2.50;;;1.98;;
57856;SDS011;43683;48.650;9.290;2022-08-11T08:53:29;2.30;;;2.10;;
57856;SDS011;43683;48.650;9.290;2022-08-11T08:55:59;4.45;;;1.92;;
57856;SDS011;43683;48.650;9.290;2022-08-11T08:58:26;3.20;;;1.95;;
57856;SDS011;43683;48.650;9.290;2022-08-11T09:00:54;3.83;;;2.00;;
57856;SDS011;43683;48.650;9.290;2022-08-11T09:03:22;2.75;;;1.83;;
57856;SDS011;43683;48.650;9.290;2022-08-11T09:05:48;3.63;;;2.50;;
57856;SDS011;43683;48.650;9.290;2022-08-11T09:08:18;2.92;;;1.70;;
57856;SDS011;43683;48.650;9.290;2022-08-11T09:10:46;2.83;;;1.88;;
57856;SDS011;43683;48.650;9.290;2022-08-11T09:13:32;2.95;;;1.77;;
57856;SDS011;43683;48.650;9.290;2022-08-11T09:16:00;2.28;;;1.65;;
57856;SDS011;43683;48.650;9.290;2022-08-11T09:18:27;2.92;;;1.60;;
57856;SDS011;43683;48.650;9.290;2022-08-11T09:20:54;2.33;;;1.70;;
57856;SDS011;43683;48.650;9.290;2022-08-11T09:23:20;1.52;;;1.20;;
57856;SDS011;43683;48.650;9.290;2022-08-11T09:26:05;2.45;;;1.58;;
57856;SDS011;43683;48.650;9.290;2022-08-11T09:28:50;3.67;;;2.00;;
57856;SDS011;43683;48.650;9.290;2022-08-11T09:31:16;3.70;;;1.85;;
57856;SDS011;43683;48.650;9.290;2022-08-11T09:36:11;2.10;;;1.83;;
57856;SDS011;43683;48.650;9.290;2022-08-11T09:39:13;2.25;;;1.65;;
57856;SDS011;43683;48.650;9.290;2022-08-11T09:41:59;1.83;;;1.45;;
57856;SDS011;43683;48.650;9.290;2022-08-11T09:44:27;2.28;;;1.50;;
57856;SDS011;43683;48.650;9.290;2022-08-11T09:47:14;2.00;;;1.33;;
57856;SDS011;43683;48.650;9.290;2022-08-11T09:49:49;2.95;;;1.60;;
57856;SDS011;43683;48.650;9.290;2022-08-11T09:52:25;4.15;;;2.10;;
57856;SDS011;43683;48.650;9.290;2022-08-11T09:54:52;2.47;;;1.70;;
57856;SDS011;43683;48.650;9.290;2022-08-11T09:57:19;2.45;;;1.50;;
57856;SDS011;43683;48.650;9.290;2022-08-11T10:00:06;3.72;;;1.70;;
57856;SDS011;43683;48.650;9.290;2022-08-11T10:02:33;1.45;;;1.35;;
57856;SDS011;43683;48.650;9.290;2022-08-11T10:05:06;2.40;;;1.58;;
57856;SDS011;43683;48.650;9.290;2022-08-11T10:07:51;2.75;;;1.40;;
57856;SDS011;43683;48.650;9.290;2022-08-11T10:13:08;2.15;;;1.40;;
57856;SDS011;43683;48.650;9.290;2022-08-11T10:15:33;1.83;;;1.60;;
57856;SDS011;43683;48.650;9.290;2022-08-11T10:18:05;1.90;;;1.30;;
57856;SDS011;43683;48.650;9.290;2022-08-11T10:20:50;2.15;;;1.35;;
57856;SDS011;43683;48.650;9.290;2022-08-11T10:23:19;2.50;;;1.40;;
57856;SDS011;43683;48.650;9.290;2022-08-11T10:26:05;2.65;;;1.70;;
57856;SDS011;43683;48.650;9.290;2022-08-11T10:29:00;2.40;;;1.65;;
57856;SDS011;43683;48.650;9.290;2022-08-11T10:31:48;1.50;;;1.40;;
57856;SDS011;43683;48.650;9.290;2022-08-11T10:34:32;3.17;;;1.48;;
57856;SDS011;43683;48.650;9.290;2022-08-11T10:36:59;2.92;;;1.65;;
57856;SDS011;43683;48.650;9.290;2022-08-11T10:39:27;2.83;;;1.33;;
57856;SDS011;43683;48.650;9.290;2022-08-11T10:41:53;3.83;;;1.60;;
57856;SDS011;43683;48.650;9.290;2022-08-11T10:44:40;2.58;;;1.05;;
57856;SDS011;43683;48.650;9.290;2022-08-11T10:47:09;1.67;;;1.27;;
57856;SDS011;43683;48.650;9.290;2022-08-11T10:49:55;1.75;;;1.40;;
57856;SDS011;43683;48.650;9.290;2022-08-11T10:52:42;3.55;;;1.70;;
57856;SDS011;43683;48.650;9.290;2022-08-11T10:55:30;2.25;;;1.30;;
57856;SDS011;43683;48.650;9.290;2022-08-11T10:58:14;2.65;;;1.33;;
57856;SDS011;43683;48.650;9.290;2022-08-11T11:01:00;1.95;;;1.50;;
57856;SDS011;43683;48.650;9.290;2022-08-11T11:05:55;1.35;;;1.20;;
57856;SDS011;43683;48.650;9.290;2022-08-11T11:08:27;1.80;;;1.40;;
57856;SDS011;43683;48.650;9.290;2022-08-11T11:11:13;2.13;;;1.33;;
57856;SDS011;43683;48.650;9.290;2022-08-11T11:13:42;3.67;;;1.83;;
57856;SDS011;43683;48.650;9.290;2022-08-11T11:16:36;2.78;;;1.55;;
57856;SDS011;43683;48.650;9.290;2022-08-11T11:19:23;2.35;;;1.42;;
57856;SDS011;43683;48.650;9.290;2022-08-11T11:21:53;2.08;;;1.60;;
57856;SDS011;43683;48.650;9.290;2022-08-11T11:24:44;3.47;;;1.58;;
57856;SDS011;43683;48.650;9.290;2022-08-11T11:27:20;3.65;;;1.50;;
57856;SDS011;43683;48.650;9.290;2022-08-11T11:30:05;3.07;;;1.40;;
57856;SDS011;43683;48.650;9.290;2022-08-11T11:32:36;3.03;;;1.50;;
57856;SDS011;43683;48.650;9.290;2022-08-11T11:37:40;3.10;;;1.40;;
57856;SDS011;43683;48.650;9.290;2022-08-11T11:40:08;3.72;;;1.52;;
57856;SDS011;43683;48.650;9.290;2022-08-11T11:42:36;1.98;;;1.30;;
57856;SDS011;43683;48.650;9.290;2022-08-11T11:45:04;1.73;;;1.17;;
57856;SDS011;43683;48.650;9.290;2022-08-11T11:47:30;2.13;;;1.00;;
57856;SDS011;43683;48.650;9.290;2022-08-11T11:49:57;2.70;;;1.33;;
57856;SDS011;43683;48.650;9.290;2022-08-11T11:52:23;3.08;;;1.52;;
57856;SDS011;43683;48.650;9.290;2022-08-11T11:54:51;2.58;;;1.40;;
57856;SDS011;43683;48.650;9.290;2022-08-11T11:57:19;1.33;;;1.23;;
57856;SDS011;43683;48.650;9.290;2022-08-11T12:00:05;2.72;;;1.42;;
57856;SDS011;43683;48.650;9.290;2022-08-11T12:02:57;1.95;;;1.30;;
57856;SDS011;43683;48.650;9.290;2022-08-11T12:05:24;1.75;;;1.17;;
57856;SDS011;43683;48.650;9.290;2022-08-11T12:07:51;3.05;;;1.50;;
57856;SDS011;43683;48.650;9.290;2022-08-11T12:10:58;3.28;;;1.35;;
57856;SDS011;43683;48.650;9.290;2022-08-11T12:13:46;1.88;;;1.20;;
57856;SDS011;43683;48.650;9.290;2022-08-11T12:16:14;3.28;;;1.40;;
57856;SDS011;43683;48.650;9.290;2022-08-11T12:18:42;1.55;;;1.23;;
57856;SDS011;43683;48.650;9.290;2022-08-11T12:21:13;1.52;;;1.25;;
57856;SDS011;43683;48.650;9.290;2022-08-11T12:23:40;2.47;;;1.48;;
57856;SDS011;43683;48.650;9.290;2022-08-11T12:26:26;1.40;;;1.20;;
57856;SDS011;43683;48.650;9.290;2022-08-11T12:29:11;2.20;;;1.50;;
57856;SDS011;43683;48.650;9.290;2022-08-11T12:31:38;1.80;;;1.52;;
57856;SDS011;43683;48.650;9.290;2022-08-11T12:34:06;4.05;;;1.35;;
57856;SDS011;43683;48.650;9.290;2022-08-11T12:36:39;2.10;;;1.30;;
57856;SDS011;43683;48.650;9.290;2022-08-11T12:39:21;1.67;;;1.35;;
57856;SDS011;43683;48.650;9.290;2022-08-11T12:42:10;1.77;;;1.40;;
57856;SDS011;43683;48.650;9.290;2022-08-11T12:44:56;1.27;;;1.10;;
57856;SDS011;43683;48.650;9.290;2022-08-11T12:47:46;1.98;;;1.42;;
57856;SDS011;43683;48.650;9.290;2022-08-11T12:50:40;1.35;;;1.20;;
57856;SDS011;43683;48.650;9.290;2022-08-11T12:53:26;2.25;;;1.30;;
57856;SDS011;43683;48.650;9.290;2022-08-11T12:55:57;1.63;;;1.10;;
57856;SDS011;43683;48.650;9.290;2022-08-11T12:58:47;2.15;;;1.23;;
57856;SDS011;43683;48.650;9.290;2022-08-11T13:01:15;1.23;;;1.10;;
57856;SDS011;43683;48.650;9.290;2022-08-11T13:03:59;1.50;;;1.10;;
57856;SDS011;43683;48.650;9.290;2022-08-11T13:06:44;1.42;;;0.90;;
57856;SDS011;43683;48.650;9.290;2022-08-11T13:09:10;3.33;;;1.50;;
57856;SDS011;43683;48.650;9.290;2022-08-11T13:11:37;3.50;;;1.40;;
57856;SDS011;43683;48.650;9.290;2022-08-11T13:14:22;1.77;;;1.20;;
57856;SDS011;43683;48.650;9.290;2022-08-11T13:16:50;2.58;;;1.25;;
57856;SDS011;43683;48.650;9.290;2022-08-11T13:19:35;2.47;;;1.27;;
57856;SDS011;43683;48.650;9.290;2022-08-11T13:22:01;1.33;;;1.10;;
57856;SDS011;43683;48.650;9.290;2022-08-11T13:24:31;2.45;;;1.33;;
57856;SDS011;43683;48.650;9.290;2022-08-11T13:26:58;2.15;;;1.30;;
57856;SDS011;43683;48.650;9.290;2022-08-11T13:29:25;2.05;;;1.15;;
57856;SDS011;43683;48.650;9.290;2022-08-11T13:31:53;2.25;;;1.20;;
57856;SDS011;43683;48.650;9.290;2022-08-11T13:34:23;1.33;;;1.02;;
57856;SDS011;43683;48.650;9.290;2022-08-11T13:36:51;1.45;;;1.30;;
57856;SDS011;43683;48.650;9.290;2022-08-11T13:39:20;2.45;;;1.13;;
57856;SDS011;43683;48.650;9.290;2022-08-11T13:41:48;1.42;;;1.25;;
57856;SDS011;43683;48.650;9.290;2022-08-11T13:44:15;2.80;;;1.23;;
57856;SDS011;43683;48.650;9.290;2022-08-11T13:46:41;3.97;;;1.50;;
57856;SDS011;43683;48.650;9.290;2022-08-11T13:49:07;4.25;;;1.33;;
57856;SDS011;43683;48.650;9.290;2022-08-11T13:51:37;2.13;;;1.48;;
57856;SDS011;43683;48.650;9.290;2022-08-11T13:54:08;1.77;;;1.17;;
57856;SDS011;43683;48.650;9.290;2022-08-11T13:56:35;3.33;;;2.00;;
57856;SDS011;43683;48.650;9.290;2022-08-11T13:59:04;2.25;;;1.38;;
57856;SDS011;43683;48.650;9.290;2022-08-11T14:01:36;3.95;;;1.20;;
57856;SDS011;43683;48.650;9.290;2022-08-11T14:04:10;1.63;;;1.20;;
57856;SDS011;43683;48.650;9.290;2022-08-11T14:06:44;1.58;;;1.23;;
57856;SDS011;43683;48.650;9.290;2022-08-11T14:09:20;1.80;;;1.30;;
57856;SDS011;43683;48.650;9.290;2022-08-11T14:11:50;1.77;;;1.20;;
57856;SDS011;43683;48.650;9.290;2022-08-11T14:14:39;1.63;;;1.13;;
57856;SDS011;43683;48.650;9.290;2022-08-11T14:17:07;2.38;;;1.20;;
57856;SDS011;43683;48.650;9.290;2022-08-11T14:19:34;2.97;;;1.25;;
57856;SDS011;43683;48.650;9.290;2022-08-11T14:22:04;2.67;;;1.45;;
57856;SDS011;43683;48.650;9.290;2022-08-11T14:24:31;1.77;;;1.27;;
57856;SDS011;43683;48.650;9.290;2022-08-11T14:26:58;1.50;;;1.20;;
57856;SDS011;43683;48.650;9.290;2022-08-11T14:29:25;2.90;;;1.58;;
57856;SDS011;43683;48.650;9.290;2022-08-11T14:31:53;2.25;;;1.45;;
57856;SDS011;43683;48.650;9.290;2022-08-11T14:34:25;2.25;;;1.27;;
57856;SDS011;43683;48.650;9.290;2022-08-11T14:36:54;1.70;;;1.30;;
57856;SDS011;43683;48.650;9.290;2022-08-11T14:39:26;3.10;;;1.33;;
57856;SDS011;43683;48.650;9.290;2022-08-11T14:41:55;2.05;;;1.20;;
57856;SDS011;43683;48.650;9.290;2022-08-11T14:44:42;3.53;;;1.30;;
57856;SDS011;43683;48.650;9.290;2022-08-11T14:47:32;1.88;;;1.30;;
57856;SDS011;43683;48.650;9.290;2022-08-11T14:49:59;2.90;;;1.38;;
57856;SDS011;43683;48.650;9.290;2022-08-11T14:52:26;3.08;;;1.10;;
57856;SDS011;43683;48.650;9.290;2022-08-11T14:54:55;2.10;;;1.30;;
57856;SDS011;43683;48.650;9.290;2022-08-11T14:57:40;2.00;;;1.15;;
57856;SDS011;43683;48.650;9.290;2022-08-11T15:00:07;3.67;;;1.35;;
57856;SDS011;43683;48.650;9.290;2022-08-11T15:02:37;3.58;;;1.33;;
57856;SDS011;43683;48.650;9.290;2022-08-11T15:05:22;1.42;;;1.20;;
57856;SDS011;43683;48.650;9.290;2022-08-11T15:07:49;2.58;;;1.23;;
57856;SDS011;43683;48.650;9.290;2022-08-11T15:10:16;3.05;;;1.40;;
57856;SDS011;43683;48.650;9.290;2022-08-11T15:12:43;1.65;;;1.08;;
57856;SDS011;43683;48.650;9.290;2022-08-11T15:17:56;2.33;;;1.38;;
57856;SDS011;43683;48.650;9.290;2022-08-11T15:20:24;1.67;;;1.30;;
57856;SDS011;43683;48.650;9.290;2022-08-11T15:23:09;2.05;;;1.30;;
57856;SDS011;43683;48.650;9.290;2022-08-11T15:25:55;1.58;;;1.20;;
57856;SDS011;43683;48.650;9.290;2022-08-11T15:28:26;3.25;;;1.30;;
57856;SDS011;43683;48.650;9.290;2022-08-11T15:31:13;4.13;;;1.17;;
57856;SDS011;43683;48.650;9.290;2022-08-11T15:34:04;2.95;;;1.17;;
57856;SDS011;43683;48.650;9.290;2022-08-11T15:36:50;1.65;;;1.35;;
57856;SDS011;43683;48.650;9.290;2022-08-11T15:42:31;2.85;;;1.33;;
57856;SDS011;43683;48.650;9.290;2022-08-11T15:45:18;3.22;;;1.38;;
57856;SDS011;43683;48.650;9.290;2022-08-11T15:48:06;2.97;;;1.40;;
57856;SDS011;43683;48.650;9.290;2022-08-11T15:50:37;1.10;;;1.00;;
57856;SDS011;43683;48.650;9.290;2022-08-11T15:53:08;4.22;;;1.50;;
57856;SDS011;43683;48.650;9.290;2022-08-11T15:55:41;1.40;;;1.17;;
57856;SDS011;43683;48.650;9.290;2022-08-11T15:58:08;2.90;;;1.17;;
57856;SDS011;43683;48.650;9.290;2022-08-11T16:00:55;2.40;;;1.40;;
57856;SDS011;43683;48.650;9.290;2022-08-11T16:03:51;3.58;;;1.42;;
57856;SDS011;43683;48.650;9.290;2022-08-11T16:06:38;1.80;;;1.20;;
57856;SDS011;43683;48.650;9.290;2022-08-11T16:09:21;2.83;;;1.25;;
57856;SDS011;43683;48.650;9.290;2022-08-11T16:11:50;2.38;;;1.10;;
57856;SDS011;43683;48.650;9.290;2022-08-11T16:14:18;2.42;;;1.38;;
57856;SDS011;43683;48.650;9.290;2022-08-11T16:17:04;2.90;;;1.30;;
57856;SDS011;43683;48.650;9.290;2022-08-11T16:19:33;1.50;;;1.20;;
57856;SDS011;43683;48.650;9.290;2022-08-11T16:22:04;2.22;;;1.13;;
57856;SDS011;43683;48.650;9.290;2022-08-11T16:24:34;3.55;;;1.20;;
57856;SDS011;43683;48.650;9.290;2022-08-11T16:27:02;1.98;;;1.10;;
57856;SDS011;43683;48.650;9.290;2022-08-11T16:29:29;1.77;;;1.20;;
57856;SDS011;43683;48.650;9.290;2022-08-11T16:34:40;2.42;;;1.20;;
57856;SDS011;43683;48.650;9.290;2022-08-11T16:37:27;3.67;;;1.40;;
57856;SDS011;43683;48.650;9.290;2022-08-11T16:40:14;5.10;;;1.40;;
57856;SDS011;43683;48.650;9.290;2022-08-11T16:42:41;3.00;;;1.77;;
57856;SDS011;43683;48.650;9.290;2022-08-11T16:45:28;2.97;;;1.33;;
57856;SDS011;43683;48.650;9.290;2022-08-11T16:48:13;4.22;;;1.40;;
57856;SDS011;43683;48.650;9.290;2022-08-11T16:50:39;1.30;;;1.20;;
57856;SDS011;43683;48.650;9.290;2022-08-11T16:53:05;3.13;;;1.13;;
57856;SDS011;43683;48.650;9.290;2022-08-11T16:55:31;3.73;;;1.40;;
57856;SDS011;43683;48.650;9.290;2022-08-11T16:57:59;3.78;;;1.45;;
57856;SDS011;43683;48.650;9.290;2022-08-11T17:00:44;1.58;;;1.40;;
57856;SDS011;43683;48.650;9.290;2022-08-11T17:03:11;4.13;;;1.50;;
57856;SDS011;43683;48.650;9.290;2022-08-11T17:05:56;1.80;;;1.40;;
57856;SDS011;43683;48.650;9.290;2022-08-11T17:08:49;1.73;;;1.38;;
57856;SDS011;43683;48.650;9.290;2022-08-11T17:11:37;3.92;;;1.50;;
57856;SDS011;43683;48.650;9.290;2022-08-11T17:14:39;4.07;;;1.80;;
57856;SDS011;43683;48.650;9.290;2022-08-11T17:17:23;2.72;;;1.38;;
57856;SDS011;43683;48.650;9.290;2022-08-11T17:19:54;4.43;;;1.63;;
57856;SDS011;43683;48.650;9.290;2022-08-11T17:22:22;2.65;;;1.50;;
57856;SDS011;43683;48.650;9.290;2022-08-11T17:25:08;2.40;;;1.42;;
57856;SDS011;43683;48.650;9.290;2022-08-11T17:27:35;4.72;;;1.30;;
57856;SDS011;43683;48.650;9.290;2022-08-11T17:30:03;4.78;;;1.70;;
57856;SDS011;43683;48.650;9.290;2022-08-11T17:32:32;3.15;;;1.38;;
57856;SDS011;43683;48.650;9.290;2022-08-11T17:35:38;2.42;;;1.40;;
57856;SDS011;43683;48.650;9.290;2022-08-11T17:38:13;2.13;;;1.30;;
57856;SDS011;43683;48.650;9.290;2022-08-11T17:40:50;3.25;;;1.58;;
57856;SDS011;43683;48.650;9.290;2022-08-11T17:43:37;4.63;;;1.50;;
57856;SDS011;43683;48.650;9.290;2022-08-11T17:46:22;3.58;;;1.58;;
57856;SDS011;43683;48.650;9.290;2022-08-11T17:49:07;3.50;;;1.33;;
57856;SDS011;43683;48.650;9.290;2022-08-11T17:51:36;4.43;;;1.50;;
57856;SDS011;43683;48.650;9.290;2022-08-11T17:54:20;2.83;;;1.30;;
57856;SDS011;43683;48.650;9.290;2022-08-11T17:57:06;2.40;;;1.40;;
57856;SDS011;43683;48.650;9.290;2022-08-11T17:59:51;2.55;;;1.27;;
57856;SDS011;43683;48.650;9.290;2022-08-11T18:02:33;2.55;;;1.40;;
57856;SDS011;43683;48.650;9.290;2022-08-11T18:05:20;3.10;;;1.50;;
57856;SDS011;43683;48.650;9.290;2022-08-11T18:07:52;2.53;;;1.45;;
57856;SDS011;43683;48.650;9.290;2022-08-11T18:10:39;2.92;;;1.52;;
57856;SDS011;43683;48.650;9.290;2022-08-11T18:13:24;2.47;;;1.40;;
57856;SDS011;43683;48.650;9.290;2022-08-11T18:16:11;2.93;;;1.30;;
57856;SDS011;43683;48.650;9.290;2022-08-11T18:18:55;4.15;;;1.35;;
57856;SDS011;43683;48.650;9.290;2022-08-11T18:21:44;3.17;;;1.48;;
57856;SDS011;43683;48.650;9.290;2022-08-11T18:24:36;3.00;;;1.40;;
57856;SDS011;43683;48.650;9.290;2022-08-11T18:27:24;1.83;;;1.42;;
57856;SDS011;43683;48.650;9.290;2022-08-11T18:30:12;2.10;;;1.35;;
57856;SDS011;43683;48.650;9.290;2022-08-11T18:32:59;2.13;;;1.55;;
57856;SDS011;43683;48.650;9.290;2022-08-11T18:35:45;1.73;;;1.60;;
57856;SDS011;43683;48.650;9.290;2022-08-11T18:38:34;4.35;;;1.80;;
57856;SDS011;43683;48.650;9.290;2022-08-11T18:41:20;3.85;;;1.50;;
57856;SDS011;43683;48.650;9.290;2022-08-11T18:44:05;5.25;;;2.83;;
57856;SDS011;43683;48.650;9.290;2022-08-11T18:46:52;4.40;;;2.58;;
57856;SDS011;43683;48.650;9.290;2022-08-11T18:49:39;2.58;;;1.88;;
57856;SDS011;43683;48.650;9.290;2022-08-11T18:52:27;2.45;;;1.60;;
57856;SDS011;43683;48.650;9.290;2022-08-11T18:55:13;2.80;;;1.70;;
57856;SDS011;43683;48.650;9.290;2022-08-11T18:58:03;2.45;;;1.55;;
57856;SDS011;43683;48.650;9.290;2022-08-11T19:00:52;2.58;;;1.67;;
57856;SDS011;43683;48.650;9.290;2022-08-11T19:03:39;1.75;;;1.52;;
57856;SDS011;43683;48.650;9.290;2022-08-11T19:06:24;5.18;;;1.83;;